Praia, Cape Verde
Current Conditions -  °F | °C
As of 2:00 PM on Monday 22 Dec 2014 (Local Time) from GVNP Reporting Station
Clear Clear  
Wind Chill: 77°   Ceiling: Unl
Heat Index: 79°   Visibility: 6mi
Dew Point: 63°   Wind: 14mph
Humidity: 61%   Direction: 20°NNE
Pressure: 29.94"   Gusts: NA
Location:  14.93°N, 23.54°W
Report Text: GVNP 221500Z 02012KT CAVOK 25/17 Q1014 NOSIG
Loading
Personal Weather Stations






























Interactive Weather Map New forecast layout! Learn more

10-Day Weather Forecast

Advertisements
Track Severe Weather on mobile